Terminal Aerodrome Forecast
Issued by NWS Charleston, WV

Current Version | Previous Version | Text Only | Print | Product List | Glossary Off
Versions: 1 2 3 4 5 6 7 8 9 10 11 12 13 14 15 16 17 18 19 20 21 22 23 24 25 26 27 28 29 30 31 32 33 34

000
FTUS41 KRLX 191200 AAA
TAFEKN
TAF AMD
KEKN 191255Z 1913/2012 30007KT P6SM SCT015 BKN025
     FM191500 28006KT P6SM SCT025
     FM192300 00000KT P6SM SKC
     FM200300 00000KT 4SM HZ SCT007=

USA.gov is the U.S. government's official web portal to all federal, state and local government web resources and services.